Time;durP1;ratioP1;P1;durP2;ratioP2;P2;SDS_P1;SDS_P2;PMS_P1;PMS_P2;Temp;Humidity;BMP_temperature;BMP_pressure;BME280_temperature;BME280_humidity;BME280_pressure;Samples;Min_cycle;Max_cycle;Signal;HPM_P1;HPM_P2
2023/03/22 00:01:27;;;;;;;885.40;150.00;;;9.50;99.90;;;;;;5109766;28;20204;-51
2023/03/22 00:03:55;;;;;;;841.97;139.40;;;9.40;99.90;;;;;;5108983;28;20212;-52
2023/03/22 00:06:25;;;;;;;734.10;168.00;;;9.40;99.90;;;;;;5107116;28;20208;-51
2023/03/22 00:08:53;;;;;;;133.03;59.97;;;9.40;99.90;;;;;;5088786;28;20238;-52
2023/03/22 00:11:24;;;;;;;558.27;112.43;;;9.40;99.90;;;;;;5088717;28;20674;-52
2023/03/22 00:13:53;;;;;;;925.87;193.10;;;9.50;99.90;;;;;;5088684;28;20208;-52
2023/03/22 00:16:22;;;;;;;832.60;158.10;;;9.40;99.90;;;;;;5088660;28;20257;-52
2023/03/22 00:18:50;;;;;;;255.23;65.77;;;9.40;99.90;;;;;;5088917;28;20208;-52
2023/03/22 00:21:19;;;;;;;545.23;139.87;;;9.40;99.90;;;;;;5088411;28;20269;-51
2023/03/22 00:23:47;;;;;;;787.00;166.30;;;9.40;99.90;;;;;;5088736;28;20204;-51
2023/03/22 00:26:15;;;;;;;258.97;71.13;;;9.40;99.90;;;;;;5088875;28;20215;-51
2023/03/22 00:28:44;;;;;;;202.57;73.07;;;9.40;99.90;;;;;;5088849;28;20615;-51
2023/03/22 00:31:12;;;;;;;972.70;164.27;;;9.40;99.90;;;;;;5088651;28;20263;-51
2023/03/22 00:33:41;;;;;;;268.00;78.57;;;9.30;99.90;;;;;;5088612;28;20204;-51
2023/03/22 00:36:11;;;;;;;311.47;89.87;;;9.30;99.90;;;;;;5088687;28;20215;-52
2023/03/22 00:38:40;;;;;;;594.93;123.17;;;9.30;99.90;;;;;;5088612;28;20212;-52
2023/03/22 00:41:12;;;;;;;1064.40;198.63;;;9.30;99.90;;;;;;5088740;28;20215;-51
2023/03/22 00:43:41;;;;;;;681.77;130.23;;;9.30;99.90;;;;;;5088510;28;20215;-51
2023/03/22 00:46:11;;;;;;;396.17;100.27;;;9.20;99.90;;;;;;5088684;28;20236;-52
2023/03/22 00:48:40;;;;;;;1260.87;219.10;;;9.20;99.90;;;;;;5088703;28;20656;-51
2023/03/22 00:51:09;;;;;;;376.97;94.33;;;9.20;99.90;;;;;;5077254;28;20228;-51
2023/03/22 00:53:38;;;;;;;426.43;92.63;;;9.20;99.90;;;;;;5088481;28;20286;-52
2023/03/22 00:56:12;;;;;;;710.77;138.07;;;9.20;99.90;;;;;;5088143;28;20212;-51
2023/03/22 00:58:41;;;;;;;314.17;82.67;;;9.30;99.90;;;;;;5088651;28;20235;-51
2023/03/22 01:01:12;;;;;;;543.10;103.53;;;9.30;99.90;;;;;;5088097;28;20315;-52
2023/03/22 01:03:41;;;;;;;531.30;110.77;;;9.30;99.90;;;;;;5088285;28;20257;-51
2023/03/22 01:06:10;;;;;;;472.90;92.43;;;9.30;99.90;;;;;;5087919;28;20210;-52
2023/03/22 01:08:39;;;;;;;677.80;140.37;;;9.30;99.90;;;;;;5091200;28;20200;-52
2023/03/22 01:11:08;;;;;;;669.30;114.87;;;9.40;99.90;;;;;;5091925;28;20228;-52
2023/03/22 01:13:38;;;;;;;284.13;64.30;;;9.40;99.90;;;;;;5091535;28;20641;-52
2023/03/22 01:16:08;;;;;;;257.60;63.93;;;9.30;99.90;;;;;;5091751;28;20223;-52
2023/03/22 01:18:37;;;;;;;330.63;78.20;;;9.30;99.90;;;;;;5091653;28;20639;-52
2023/03/22 01:21:06;;;;;;;917.70;129.53;;;9.30;99.90;;;;;;5091387;28;20208;-51
2023/03/22 01:23:34;;;;;;;274.47;63.00;;;9.30;99.90;;;;;;5091275;28;20705;-52
2023/03/22 01:26:02;;;;;;;315.43;72.23;;;9.30;99.90;;;;;;5091549;28;20281;-52
2023/03/22 01:28:31;;;;;;;244.10;63.73;;;9.30;99.90;;;;;;5091676;28;20200;-51
2023/03/22 01:31:02;;;;;;;561.80;129.20;;;9.20;99.90;;;;;;5091635;28;20345;-52
2023/03/22 01:33:31;;;;;;;473.93;113.53;;;9.30;99.90;;;;;;5091233;28;20291;-51
2023/03/22 01:36:00;;;;;;;422.60;104.60;;;9.30;99.90;;;;;;5091439;28;20251;-52
2023/03/22 01:38:29;;;;;;;338.27;83.53;;;9.20;99.90;;;;;;5091415;28;20211;-51
2023/03/22 01:40:57;;;;;;;460.77;128.47;;;9.20;99.90;;;;;;5091208;28;20197;-51
2023/03/22 01:43:25;;;;;;;748.43;124.00;;;9.20;99.90;;;;;;5091121;28;20753;-51
2023/03/22 01:45:54;;;;;;;594.60;121.90;;;9.10;99.90;;;;;;5090868;28;20227;-52
2023/03/22 01:48:26;;;;;;;327.40;77.60;;;9.10;99.90;;;;;;5091266;28;20215;-52
2023/03/22 01:51:04;;;;;;;674.13;103.90;;;9.10;99.90;;;;;;5090698;28;20244;-51
2023/03/22 01:53:35;;;;;;;507.10;100.97;;;9.10;99.90;;;;;;5091367;28;20290;-51
2023/03/22 01:56:04;;;;;;;213.00;65.57;;;9.10;99.90;;;;;;5091143;28;20245;-51
2023/03/22 01:58:35;;;;;;;657.80;122.70;;;9.20;99.90;;;;;;5091043;28;20203;-51
2023/03/22 02:01:05;;;;;;;348.00;83.27;;;9.20;99.90;;;;;;5091103;28;20235;-51
2023/03/22 02:03:41;;;;;;;610.93;117.27;;;9.20;99.90;;;;;;5081595;28;20208;-52
2023/03/22 02:06:10;;;;;;;629.77;115.00;;;9.10;99.90;;;;;;5090719;28;20600;-51
2023/03/22 02:08:39;;;;;;;382.10;81.17;;;9.10;99.90;;;;;;5077487;28;20204;-52
2023/03/22 02:11:12;;;;;;;1137.33;249.93;;;9.20;99.90;;;;;;5090249;28;20228;-51
2023/03/22 02:14:11;;;;;;;245.67;69.20;;;9.10;99.90;;;;;;5090554;28;20804;-51
2023/03/22 02:16:50;;;;;;;257.50;67.97;;;9.20;99.90;;;;;;5090486;28;20295;-51
2023/03/22 02:20:09;;;;;;;911.03;140.93;;;9.10;99.90;;;;;;5089313;28;20305;-51
2023/03/22 02:22:58;;;;;;;383.10;90.30;;;9.10;99.90;;;;;;5085201;28;20208;-51
2023/03/22 02:26:04;;;;;;;364.70;99.93;;;9.00;99.90;;;;;;5090151;28;20230;-51
2023/03/22 02:28:43;;;;;;;358.43;96.13;;;9.00;99.90;;;;;;5086513;28;20243;-51
2023/03/22 02:31:27;;;;;;;228.17;73.13;;;8.90;99.90;;;;;;5090412;28;20303;-51
2023/03/22 02:34:14;;;;;;;506.23;143.80;;;8.90;99.90;;;;;;5089627;28;20657;-51
2023/03/22 02:37:09;;;;;;;217.03;72.23;;;9.00;99.90;;;;;;5089743;28;20598;-52
2023/03/22 02:39:45;;;;;;;1013.47;201.37;;;9.00;99.90;;;;;;5090171;28;20295;-51
2023/03/22 02:42:27;;;;;;;611.10;131.63;;;8.90;99.90;;;;;;5090282;28;20614;-51
2023/03/22 02:45:02;;;;;;;871.67;133.13;;;8.80;99.90;;;;;;5090560;28;20224;-51
2023/03/22 02:47:40;;;;;;;1258.53;171.47;;;8.90;99.90;;;;;;5089893;28;20584;-51
2023/03/22 02:50:14;;;;;;;814.17;150.07;;;8.80;99.90;;;;;;5090536;28;20215;-52
2023/03/22 02:52:46;;;;;;;407.60;113.50;;;8.70;99.90;;;;;;5089696;28;20331;-51
2023/03/22 02:55:21;;;;;;;1131.97;193.23;;;8.70;99.90;;;;;;5090509;28;20269;-51
2023/03/22 02:57:55;;;;;;;293.40;84.57;;;8.70;99.90;;;;;;5090122;28;20210;-51
2023/03/22 03:00:25;;;;;;;412.60;106.33;;;8.80;99.90;;;;;;5090240;28;20208;-51
2023/03/22 03:02:58;;;;;;;1076.93;200.00;;;8.90;99.90;;;;;;5090389;28;20287;-52
2023/03/22 03:05:30;;;;;;;518.07;125.70;;;8.80;99.90;;;;;;5090117;28;20576;-52
2023/03/22 03:08:02;;;;;;;455.60;108.07;;;8.80;99.90;;;;;;5090177;28;20205;-52
2023/03/22 03:10:32;;;;;;;412.87;110.20;;;8.80;99.90;;;;;;5090125;28;20239;-52
2023/03/22 03:13:00;;;;;;;336.23;93.20;;;8.80;99.90;;;;;;5089719;28;20228;-52
2023/03/22 03:15:28;;;;;;;868.83;144.00;;;8.80;99.90;;;;;;5089156;28;20293;-52
2023/03/22 03:18:18;;;;;;;1678.00;226.07;;;8.70;99.90;;;;;;5089386;28;20299;-52
2023/03/22 03:20:59;;;;;;;444.67;97.67;;;8.60;99.90;;;;;;5076709;28;20292;-52
2023/03/22 03:23:37;;;;;;;356.13;100.40;;;8.60;99.90;;;;;;5089737;28;20207;-52
2023/03/22 03:26:17;;;;;;;1351.70;188.00;;;8.60;99.90;;;;;;5089546;28;20250;-52
2023/03/22 03:28:50;;;;;;;869.27;147.07;;;8.60;99.90;;;;;;5089414;28;20255;-52
2023/03/22 03:31:30;;;;;;;1999.90;297.80;;;8.60;99.90;;;;;;5089498;28;20305;-52
2023/03/22 03:34:05;;;;;;;662.83;124.23;;;8.60;99.90;;;;;;5089370;28;20249;-51
2023/03/22 03:36:36;;;;;;;685.00;118.43;;;8.50;99.90;;;;;;5089005;28;20261;-52
2023/03/22 03:39:09;;;;;;;374.87;83.73;;;8.50;99.90;;;;;;5088987;28;20829;-51
2023/03/22 03:41:40;;;;;;;669.10;129.40;;;8.60;99.90;;;;;;5089393;28;20282;-51
2023/03/22 03:44:08;;;;;;;710.90;140.37;;;8.60;99.90;;;;;;5088868;28;20224;-52
2023/03/22 03:46:37;;;;;;;440.57;116.30;;;8.60;99.90;;;;;;5089131;28;20239;-51
2023/03/22 03:49:07;;;;;;;488.77;122.83;;;8.70;99.90;;;;;;5089300;28;20208;-52
2023/03/22 03:51:47;;;;;;;692.63;148.90;;;8.70;99.90;;;;;;5089147;28;20608;-51
2023/03/22 03:54:15;;;;;;;485.40;115.80;;;8.80;99.90;;;;;;5089080;28;20228;-51
2023/03/22 03:56:46;;;;;;;1181.23;240.37;;;8.80;99.90;;;;;;5088984;28;20200;-51
2023/03/22 03:59:15;;;;;;;780.37;130.67;;;8.80;99.90;;;;;;5088695;28;20211;-52
2023/03/22 04:01:48;;;;;;;635.37;131.30;;;8.70;99.90;;;;;;5088837;28;20235;-52
2023/03/22 04:04:18;;;;;;;172.67;59.20;;;8.70;99.90;;;;;;5088708;28;20259;-52
2023/03/22 04:06:46;;;;;;;476.53;101.73;;;8.60;99.90;;;;;;5088842;28;20624;-52
2023/03/22 04:09:14;;;;;;;236.50;74.40;;;8.60;99.90;;;;;;5089140;28;20298;-51
2023/03/22 04:11:44;;;;;;;773.87;121.40;;;8.60;99.90;;;;;;5088488;28;20230;-52
2023/03/22 04:14:12;;;;;;;862.53;158.37;;;8.60;99.90;;;;;;5088694;28;20255;-51
2023/03/22 04:16:40;;;;;;;767.20;128.57;;;8.60;99.90;;;;;;5088671;28;20214;-52
2023/03/22 04:19:08;;;;;;;664.47;116.03;;;8.60;99.90;;;;;;5088771;28;20825;-51
2023/03/22 04:21:36;;;;;;;473.00;115.03;;;8.50;99.90;;;;;;5088489;28;20204;-51
2023/03/22 04:24:04;;;;;;;424.50;90.20;;;8.50;99.90;;;;;;5088700;28;20788;-51
2023/03/22 04:26:33;;;;;;;309.50;83.10;;;8.50;99.90;;;;;;5088400;28;20650;-51
2023/03/22 04:29:02;;;;;;;493.57;100.20;;;8.60;99.90;;;;;;5088799;28;20205;-52
2023/03/22 04:31:31;;;;;;;576.17;103.87;;;8.70;99.90;;;;;;5088320;28;20614;-51
2023/03/22 04:34:04;;;;;;;633.80;163.17;;;8.60;99.90;;;;;;5088568;28;20231;-52
2023/03/22 04:36:35;;;;;;;834.03;128.90;;;8.50;99.90;;;;;;5088598;28;20223;-51
2023/03/22 04:39:04;;;;;;;1143.90;165.17;;;8.50;99.90;;;;;;5088344;28;20212;-52
2023/03/22 04:41:33;;;;;;;741.63;107.53;;;8.50;99.90;;;;;;5088304;28;20294;-51
2023/03/22 04:44:02;;;;;;;483.30;121.50;;;8.50;99.90;;;;;;5091862;28;20315;-51
2023/03/22 04:46:31;;;;;;;967.93;180.83;;;8.50;99.90;;;;;;5092566;28;20360;-51
2023/03/22 04:49:00;;;;;;;228.43;67.50;;;8.60;99.90;;;;;;5092253;28;20207;-51
2023/03/22 04:51:29;;;;;;;267.70;89.90;;;8.60;99.90;;;;;;5092275;28;20630;-51
2023/03/22 04:53:57;;;;;;;364.03;86.83;;;8.60;99.90;;;;;;5092236;28;20230;-51
2023/03/22 04:56:25;;;;;;;1100.50;161.43;;;8.50;99.90;;;;;;5092135;28;20599;-51
2023/03/22 04:58:54;;;;;;;1209.60;178.63;;;8.50;99.90;;;;;;5091772;28;20738;-51
2023/03/22 05:01:23;;;;;;;573.57;126.97;;;8.60;99.90;;;;;;5091731;28;20199;-52
2023/03/22 05:03:51;;;;;;;1246.93;177.50;;;8.60;99.90;;;;;;5091694;28;20207;-51
2023/03/22 05:06:19;;;;;;;670.73;114.83;;;8.60;99.90;;;;;;5092020;28;20207;-52
2023/03/22 05:08:47;;;;;;;588.63;109.90;;;8.60;99.90;;;;;;5092099;28;20839;-51
2023/03/22 05:11:18;;;;;;;220.13;67.13;;;8.50;99.90;;;;;;5091457;28;20301;-51
2023/03/22 05:13:46;;;;;;;495.40;126.67;;;8.60;99.90;;;;;;5091913;28;20293;-51
2023/03/22 05:16:14;;;;;;;371.10;90.40;;;8.60;99.90;;;;;;5091617;28;20277;-51
2023/03/22 05:18:44;;;;;;;316.43;88.53;;;8.60;99.90;;;;;;5092018;28;20203;-52
2023/03/22 05:21:14;;;;;;;912.33;141.23;;;8.60;99.90;;;;;;5091476;28;20236;-52
2023/03/22 05:23:42;;;;;;;909.30;146.40;;;8.50;99.90;;;;;;5077627;28;20807;-51
2023/03/22 05:26:14;;;;;;;557.13;124.93;;;8.50;99.90;;;;;;5091976;28;20211;-51
2023/03/22 05:28:43;;;;;;;426.40;115.27;;;8.50;99.90;;;;;;5091360;28;20208;-52
2023/03/22 05:31:13;;;;;;;897.53;144.53;;;8.50;99.90;;;;;;5091565;28;20265;-52
2023/03/22 05:33:45;;;;;;;478.97;108.17;;;8.50;99.90;;;;;;5091065;28;20590;-52
2023/03/22 05:36:13;;;;;;;452.00;129.20;;;8.50;99.90;;;;;;5091692;28;20219;-52
2023/03/22 05:38:41;;;;;;;1435.77;241.17;;;8.40;99.90;;;;;;5090611;28;20321;-51
2023/03/22 05:41:09;;;;;;;251.47;91.33;;;8.40;99.90;;;;;;5091652;28;20240;-52
2023/03/22 05:43:37;;;;;;;591.37;146.13;;;8.40;99.90;;;;;;5091182;28;20202;-51
2023/03/22 05:46:06;;;;;;;323.03;88.03;;;8.50;99.90;;;;;;5090890;28;20207;-52
2023/03/22 05:48:34;;;;;;;642.37;122.33;;;8.50;99.90;;;;;;5091582;28;20291;-51
2023/03/22 05:51:06;;;;;;;807.33;166.80;;;8.60;99.90;;;;;;5091198;28;20208;-51
2023/03/22 05:53:34;;;;;;;486.83;97.57;;;8.60;99.90;;;;;;5089947;28;20333;-51
2023/03/22 05:56:02;;;;;;;1093.43;201.97;;;8.70;99.90;;;;;;5090818;28;20256;-51
2023/03/22 05:58:32;;;;;;;785.33;149.77;;;8.70;99.90;;;;;;5091208;28;20239;-52
2023/03/22 06:01:06;;;;;;;471.87;113.53;;;8.80;99.90;;;;;;5090666;28;20840;-51
2023/03/22 06:03:34;;;;;;;1193.50;225.23;;;8.70;99.90;;;;;;5090724;28;20219;-51
2023/03/22 06:06:05;;;;;;;749.40;143.80;;;8.80;99.90;;;;;;5090455;28;20979;-51
2023/03/22 06:08:34;;;;;;;840.40;185.93;;;8.70;99.90;;;;;;5090839;28;20257;-51
2023/03/22 06:11:02;;;;;;;1455.27;229.47;;;8.80;99.90;;;;;;5086090;28;20204;-52
2023/03/22 06:13:30;;;;;;;1056.37;169.53;;;8.80;99.90;;;;;;5080354;28;20227;-52
2023/03/22 06:15:59;;;;;;;1189.40;213.13;;;8.80;99.90;;;;;;5089599;28;20254;-51
2023/03/22 06:18:28;;;;;;;506.33;116.90;;;8.80;99.90;;;;;;5090452;28;20208;-51
2023/03/22 06:20:56;;;;;;;395.50;98.97;;;8.90;99.90;;;;;;5093903;28;20231;-51
2023/03/22 06:23:25;;;;;;;498.13;98.07;;;8.90;99.90;;;;;;5082112;28;20283;-51
2023/03/22 06:25:54;;;;;;;1428.20;266.17;;;8.80;99.90;;;;;;5092637;28;20678;-51
2023/03/22 06:28:22;;;;;;;630.93;133.87;;;8.90;99.90;;;;;;5110738;28;20230;-51
2023/03/22 06:30:50;;;;;;;1037.63;172.47;;;8.90;99.90;;;;;;5110254;28;20646;-51
2023/03/22 06:33:18;;;;;;;1723.20;505.30;;;8.90;99.90;;;;;;5104286;28;20230;-52
2023/03/22 06:35:46;;;;;;;670.60;139.03;;;9.00;99.90;;;;;;5101839;28;20316;-51
2023/03/22 06:38:14;;;;;;;933.40;197.20;;;9.00;99.90;;;;;;5110566;28;20226;-52
2023/03/22 06:40:44;;;;;;;400.63;89.03;;;9.10;99.90;;;;;;5110332;28;20633;-52
2023/03/22 06:43:12;;;;;;;360.53;97.57;;;9.10;99.90;;;;;;5110135;28;20206;-51
2023/03/22 06:45:40;;;;;;;440.13;97.27;;;9.10;99.90;;;;;;5103224;28;20314;-52
2023/03/22 06:48:08;;;;;;;607.20;119.37;;;9.10;99.90;;;;;;5105841;28;20298;-52
2023/03/22 06:50:37;;;;;;;1540.83;235.40;;;9.10;99.90;;;;;;5097728;28;20208;-52
2023/03/22 06:53:08;;;;;;;598.43;124.43;;;9.20;99.90;;;;;;5103921;28;20805;-52
2023/03/22 06:55:36;;;;;;;1999.90;441.07;;;9.10;99.90;;;;;;5109887;28;20261;-52
2023/03/22 06:58:05;;;;;;;609.30;113.13;;;9.10;99.90;;;;;;5110137;28;20246;-51
2023/03/22 07:00:34;;;;;;;775.23;157.00;;;9.10;99.90;;;;;;5109865;28;20252;-51
2023/03/22 07:03:02;;;;;;;1991.30;255.77;;;9.10;99.90;;;;;;5110013;28;20204;-51
2023/03/22 07:05:30;;;;;;;1012.97;199.43;;;9.10;99.90;;;;;;5109219;28;20310;-52
2023/03/22 07:07:59;;;;;;;732.63;145.53;;;9.10;99.90;;;;;;5101281;28;20699;-52
2023/03/22 07:10:27;;;;;;;1493.20;183.90;;;9.20;99.90;;;;;;5096821;28;20227;-51
2023/03/22 07:12:55;;;;;;;706.30;128.43;;;9.10;99.90;;;;;;5088280;28;20303;-51
2023/03/22 07:15:24;;;;;;;1999.90;295.13;;;9.10;99.90;;;;;;5093013;28;20277;-51
2023/03/22 07:17:52;;;;;;;1812.20;271.30;;;9.10;99.90;;;;;;5094399;28;20217;-52
2023/03/22 07:20:20;;;;;;;850.87;152.77;;;9.20;99.90;;;;;;5092402;28;20262;-51
2023/03/22 07:22:50;;;;;;;568.20;119.87;;;9.20;99.90;;;;;;5107413;28;20239;-52
2023/03/22 07:25:19;;;;;;;1999.90;531.57;;;9.30;99.90;;;;;;5093742;28;20240;-52
2023/03/22 07:27:47;;;;;;;1381.43;185.87;;;9.30;99.90;;;;;;5092946;28;20204;-51
2023/03/22 07:30:15;;;;;;;1019.80;136.43;;;9.40;99.90;;;;;;5097093;28;20267;-52
2023/03/22 07:32:44;;;;;;;921.23;181.00;;;9.50;99.90;;;;;;5103739;28;20237;-51
2023/03/22 07:35:12;;;;;;;1810.07;231.30;;;9.50;99.90;;;;;;5107452;28;20285;-51
2023/03/22 07:37:40;;;;;;;1999.90;281.47;;;9.60;99.90;;;;;;5103234;28;20660;-51
2023/03/22 07:40:09;;;;;;;968.30;140.93;;;9.70;99.90;;;;;;5107100;28;20260;-51
2023/03/22 07:42:38;;;;;;;1567.07;278.30;;;9.70;99.90;;;;;;5103821;28;20251;-51
2023/03/22 07:45:07;;;;;;;1999.90;268.23;;;9.60;99.90;;;;;;5103934;28;20263;-51
2023/03/22 07:47:35;;;;;;;1996.33;300.23;;;9.60;99.90;;;;;;5100200;28;20211;-52
2023/03/22 07:50:13;;;;;;;1514.17;219.50;;;9.70;99.90;;;;;;5109630;28;20207;-51
2023/03/22 07:52:42;;;;;;;1999.90;296.27;;;9.70;99.90;;;;;;5108845;28;20239;-51
2023/03/22 07:55:12;;;;;;;1999.90;438.07;;;9.80;99.90;;;;;;5108760;28;20272;-52
2023/03/22 07:57:40;;;;;;;892.57;154.47;;;9.90;99.90;;;;;;5109683;28;20284;-51
2023/03/22 08:00:09;;;;;;;1138.40;173.00;;;10.00;99.90;;;;;;5107836;28;20212;-51
2023/03/22 08:02:38;;;;;;;1999.90;411.37;;;10.10;99.90;;;;;;5098075;28;20211;-52
2023/03/22 08:05:07;;;;;;;1999.90;431.77;;;10.10;99.90;;;;;;5102328;28;20217;-51
2023/03/22 08:07:36;;;;;;;1999.90;582.10;;;10.10;99.90;;;;;;5109082;28;20303;-51
2023/03/22 08:10:05;;;;;;;1999.90;814.03;;;10.10;99.90;;;;;;5094185;28;20680;-55
2023/03/22 08:12:33;;;;;;;1999.90;510.63;;;10.20;99.90;;;;;;5109106;28;20245;-51
2023/03/22 08:15:01;;;;;;;1999.90;632.07;;;10.20;99.90;;;;;;5101340;28;20331;-51
2023/03/22 08:17:30;;;;;;;1999.90;843.80;;;10.20;99.90;;;;;;5108949;28;20213;-51
2023/03/22 08:19:58;;;;;;;1999.90;536.10;;;10.30;99.90;;;;;;5102588;28;20211;-51
2023/03/22 08:22:28;;;;;;;1999.90;529.23;;;10.30;99.90;;;;;;5110154;28;20216;-51
2023/03/22 08:24:57;;;;;;;1999.90;368.40;;;10.20;99.90;;;;;;5113385;28;20219;-51
2023/03/22 08:27:26;;;;;;;1999.90;625.47;;;10.10;99.90;;;;;;5109034;28;20239;-51
2023/03/22 08:29:54;;;;;;;1999.90;620.40;;;10.20;99.90;;;;;;5113190;28;20286;-51
2023/03/22 08:32:22;;;;;;;1999.90;728.57;;;10.30;99.90;;;;;;5112660;28;20246;-51
2023/03/22 08:34:51;;;;;;;1999.90;789.37;;;10.30;99.90;;;;;;5107967;28;20223;-51
2023/03/22 08:37:20;;;;;;;1999.90;608.63;;;10.30;99.90;;;;;;5113028;28;20203;-52
2023/03/22 08:39:48;;;;;;;1999.90;343.77;;;10.40;99.90;;;;;;5112735;28;20686;-51
2023/03/22 08:42:17;;;;;;;1999.90;493.10;;;10.30;99.90;;;;;;5108238;28;20295;-51
2023/03/22 08:44:46;;;;;;;1999.90;619.67;;;10.50;99.90;;;;;;5111170;28;20216;-51
2023/03/22 08:47:14;;;;;;;1999.90;557.17;;;10.40;99.90;;;;;;5101547;28;20701;-51
2023/03/22 08:49:42;;;;;;;1999.90;418.03;;;10.40;99.90;;;;;;5110080;28;20254;-51
2023/03/22 08:52:10;;;;;;;1999.90;527.33;;;10.60;99.90;;;;;;5112940;28;20208;-53
2023/03/22 08:54:38;;;;;;;1999.90;417.77;;;10.60;99.90;;;;;;5109079;28;20232;-51
2023/03/22 08:57:08;;;;;;;1893.80;233.67;;;10.70;99.90;;;;;;5101109;28;20235;-52
2023/03/22 08:59:37;;;;;;;1999.90;390.03;;;10.70;99.90;;;;;;5103345;28;20208;-52
2023/03/22 09:02:06;;;;;;;1999.90;512.17;;;10.70;99.90;;;;;;5112456;28;20261;-51
2023/03/22 09:04:34;;;;;;;1999.90;503.17;;;10.80;99.90;;;;;;5110145;28;20226;-51
2023/03/22 09:07:03;;;;;;;1999.90;465.03;;;10.70;99.90;;;;;;5081681;28;20242;-51
2023/03/22 09:09:31;;;;;;;1999.90;383.97;;;10.60;99.90;;;;;;5104239;28;20639;-51
2023/03/22 09:11:59;;;;;;;1999.90;318.87;;;10.60;99.90;;;;;;5111788;28;20215;-51
2023/03/22 09:14:27;;;;;;;1999.90;599.10;;;10.80;99.90;;;;;;5112178;28;20228;-51
2023/03/22 09:16:56;;;;;;;1999.90;498.40;;;11.10;99.90;;;;;;5111991;28;20206;-51
2023/03/22 09:19:24;;;;;;;1999.90;628.20;;;11.40;99.90;;;;;;5105962;28;20291;-51
2023/03/22 09:21:52;;;;;;;1999.90;686.87;;;11.70;99.90;;;;;;5104261;28;20228;-52
2023/03/22 09:24:21;;;;;;;1999.90;739.57;;;11.70;99.90;;;;;;5111507;28;20227;-51
2023/03/22 09:26:50;;;;;;;1999.90;482.47;;;11.60;99.90;;;;;;5111827;28;20323;-51
2023/03/22 09:29:19;;;;;;;1999.90;929.27;;;11.50;99.90;;;;;;5111320;28;20591;-51
2023/03/22 09:31:48;;;;;;;1999.90;571.40;;;11.30;99.90;;;;;;5112068;28;20214;-51
2023/03/22 09:34:17;;;;;;;1999.90;828.77;;;11.30;99.90;;;;;;5107712;28;20315;-52
2023/03/22 09:36:46;;;;;;;1999.90;466.23;;;11.20;99.90;;;;;;5111861;28;20214;-51
2023/03/22 09:39:15;;;;;;;1999.90;722.87;;;11.20;99.90;;;;;;5111503;28;20731;-52
2023/03/22 09:41:48;;;;;;;1999.90;569.50;;;11.40;99.90;;;;;;5106923;28;20204;-51
2023/03/22 09:44:22;;;;;;;1999.90;906.77;;;11.60;99.90;;;;;;5111356;28;20638;-52
2023/03/22 09:46:53;;;;;;;1999.90;914.93;;;11.60;99.90;;;;;;5091063;28;20243;-51
2023/03/22 09:49:29;;;;;;;1999.90;502.33;;;11.70;99.90;;;;;;5105631;28;20249;-52
2023/03/22 09:51:58;;;;;;;1999.90;412.83;;;11.80;99.90;;;;;;5111488;28;20198;-51
2023/03/22 09:54:32;;;;;;;1999.90;894.40;;;11.90;99.90;;;;;;5096846;28;20277;-51
2023/03/22 09:57:04;;;;;;;1999.90;867.37;;;11.80;99.90;;;;;;5110581;28;20287;-51
2023/03/22 09:59:40;;;;;;;1999.90;968.90;;;11.70;99.90;;;;;;5105574;28;20659;-51
2023/03/22 10:02:26;;;;;;;1999.90;705.60;;;11.60;99.90;;;;;;5111559;28;20239;-51
2023/03/22 10:05:04;;;;;;;1999.90;786.20;;;11.60;99.90;;;;;;5111370;28;20332;-51
2023/03/22 10:07:43;;;;;;;1999.90;555.97;;;11.60;99.90;;;;;;5102150;28;20314;-51
2023/03/22 10:10:16;;;;;;;1999.90;762.10;;;11.70;99.90;;;;;;5108314;28;20659;-52
2023/03/22 10:12:53;;;;;;;1999.90;807.17;;;11.80;99.90;;;;;;5110929;28;20246;-51
2023/03/22 10:15:28;;;;;;;1999.90;607.33;;;11.90;99.90;;;;;;5110918;28;20226;-51
2023/03/22 10:17:57;;;;;;;1999.90;820.23;;;12.10;99.90;;;;;;5109808;28;20298;-51
2023/03/22 10:20:36;;;;;;;1999.90;848.77;;;12.00;99.90;;;;;;5094622;28;20227;-51
2023/03/22 10:23:07;;;;;;;1999.90;571.13;;;12.20;99.90;;;;;;5111026;28;20239;-51
2023/03/22 10:25:37;;;;;;;1999.90;665.33;;;12.30;99.90;;;;;;5110880;28;20670;-51
2023/03/22 10:28:15;;;;;;;1999.90;831.73;;;12.50;99.90;;;;;;5110660;28;20578;-51
2023/03/22 10:30:49;;;;;;;1999.90;928.83;;;12.60;99.90;;;;;;5108047;28;20733;-51
2023/03/22 10:33:26;;;;;;;1999.90;653.43;;;12.80;99.90;;;;;;5110833;28;20211;-51
2023/03/22 10:35:56;;;;;;;1999.90;719.27;;;12.80;99.90;;;;;;5099698;28;20700;-51
2023/03/22 10:38:28;;;;;;;1999.90;946.70;;;12.80;99.90;;;;;;5111013;28;20208;-51
2023/03/22 10:40:59;;;;;;;1999.90;750.43;;;12.80;99.90;;;;;;5110007;28;20240;-51
2023/03/22 10:43:31;;;;;;;1999.90;999.90;;;12.90;99.90;;;;;;5105845;28;20200;-52
2023/03/22 10:46:02;;;;;;;1999.90;999.90;;;13.00;99.90;;;;;;5110226;28;20753;-51
2023/03/22 10:48:33;;;;;;;1999.90;999.90;;;12.90;99.90;;;;;;5110266;28;20206;-51
2023/03/22 10:51:03;;;;;;;1999.90;906.40;;;13.00;99.90;;;;;;5110142;28;20212;-52
2023/03/22 10:53:38;;;;;;;1999.90;868.10;;;13.20;99.90;;;;;;5097342;28;20207;-52
2023/03/22 10:56:12;;;;;;;1999.90;722.50;;;13.30;99.90;;;;;;5109741;28;20714;-51
2023/03/22 10:58:40;;;;;;;1999.90;916.63;;;13.40;99.90;;;;;;5110518;28;20195;-51
2023/03/22 11:01:10;;;;;;;1999.90;832.03;;;13.30;99.90;;;;;;5109999;28;20236;-51
2023/03/22 11:03:40;;;;;;;1999.90;982.57;;;13.50;99.90;;;;;;5110405;28;20245;-51
2023/03/22 11:06:13;;;;;;;1999.90;915.67;;;13.70;99.90;;;;;;5102216;28;20871;-51
2023/03/22 11:08:44;;;;;;;1999.90;999.90;;;14.00;99.90;;;;;;5108464;28;20989;-51
2023/03/22 11:11:19;;;;;;;1999.90;999.90;;;14.00;99.90;;;;;;5109984;28;20207;-51
2023/03/22 11:13:53;;;;;;;1999.90;922.53;;;14.10;99.90;;;;;;5101086;28;20310;-51
2023/03/22 11:16:23;;;;;;;1999.90;999.90;;;14.10;99.90;;;;;;5096915;28;20276;-50
2023/03/22 11:18:51;;;;;;;1999.90;999.90;;;14.00;99.90;;;;;;5108004;28;20268;-52
2023/03/22 11:21:27;;;;;;;1999.90;999.90;;;14.10;99.90;;;;;;5097471;28;20207;-52
2023/03/22 11:23:58;;;;;;;1999.90;999.90;;;14.20;99.90;;;;;;5109948;28;20653;-52
2023/03/22 11:26:30;;;;;;;1999.90;999.90;;;14.40;99.90;;;;;;5110195;28;20627;-52
2023/03/22 11:29:13;;;;;;;1999.90;999.90;;;14.60;99.90;;;;;;5109938;28;20239;-52
2023/03/22 11:31:54;;;;;;;1999.90;999.15;;;14.80;99.90;;;;;;5109674;28;20728;-51
2023/03/22 11:34:26;;;;;;;1999.90;999.90;;;14.90;99.90;;;;;;5109471;28;20769;-52
2023/03/22 11:36:59;;;;;;;1999.90;999.90;;;14.80;99.90;;;;;;5109212;28;20232;-52
2023/03/22 11:39:29;;;;;;;1999.90;958.72;;;14.70;99.90;;;;;;5108995;28;20249;-51
2023/03/22 11:42:00;;;;;;;1999.90;999.90;;;14.70;99.90;;;;;;5102890;28;20719;-52
2023/03/22 11:44:34;;;;;;;1999.90;999.90;;;14.70;99.90;;;;;;5105363;28;20788;-52
2023/03/22 11:47:04;;;;;;;1999.90;999.90;;;14.70;99.90;;;;;;5109441;28;20200;-51
2023/03/22 11:49:43;;;;;;;1999.90;999.90;;;14.50;99.90;;;;;;5109341;28;20203;-51
2023/03/22 11:52:17;;;;;;;1999.90;999.90;;;14.30;99.90;;;;;;5074811;28;20299;-51
2023/03/22 11:54:47;;;;;;;1999.90;999.90;;;14.30;99.90;;;;;;5098863;28;20242;-53
2023/03/22 11:57:19;;;;;;;1999.90;999.90;;;14.40;99.90;;;;;;5093098;28;20259;-52
2023/03/22 11:59:54;;;;;;;1999.90;999.90;;;14.40;99.90;;;;;;5091677;28;20204;-51
2023/03/22 12:02:26;;;;;;;1999.90;999.90;;;14.50;99.90;;;;;;5108847;28;20298;-52
2023/03/22 12:05:00;;;;;;;1999.90;946.42;;;14.40;99.90;;;;;;5109219;28;20239;-52
2023/03/22 12:07:32;;;;;;;1999.90;920.28;;;14.40;99.90;;;;;;5109043;28;20207;-52
2023/03/22 12:10:06;;;;;;;1999.90;901.35;;;14.50;99.90;;;;;;5108523;28;20203;-52
2023/03/22 12:12:40;;;;;;;1999.90;982.90;;;14.70;99.90;;;;;;5101240;28;20737;-52
2023/03/22 12:15:15;;;;;;;1999.90;999.90;;;14.90;99.90;;;;;;5108630;28;20276;-52
2023/03/22 12:17:47;;;;;;;1999.90;995.10;;;15.00;99.90;;;;;;5109185;28;20223;-52
2023/03/22 12:20:26;;;;;;;1999.90;999.90;;;15.10;99.90;;;;;;5095952;28;20200;-52
2023/03/22 12:22:57;;;;;;;1999.90;999.90;;;15.00;99.90;;;;;;5082105;28;20242;-52
2023/03/22 12:25:29;;;;;;;1999.90;999.90;;;14.90;99.90;;;;;;5076250;28;20346;-52
2023/03/22 12:28:00;;;;;;;1999.90;829.58;;;15.00;99.90;;;;;;5075073;28;20212;-52
2023/03/22 12:30:31;;;;;;;1999.90;999.90;;;15.10;99.90;;;;;;5101769;28;20196;-52